createdAt,value
2023-04-29T00:00:55.997Z,12.32
2023-04-29T00:03:29.319Z,12.32
2023-04-29T00:05:57.707Z,12.32
2023-04-29T00:08:25.800Z,12.27
2023-04-29T00:10:53.591Z,12.25
2023-04-29T00:13:21.508Z,12.23
2023-04-29T00:15:49.454Z,12.22
2023-04-29T00:18:17.107Z,12.22
2023-04-29T00:20:48.334Z,12.21
2023-04-29T00:23:16.318Z,12.21
2023-04-29T00:25:46.112Z,12.20
2023-04-29T00:28:13.941Z,12.17
2023-04-29T00:30:41.703Z,12.15
2023-04-29T00:33:09.531Z,12.13
2023-04-29T00:35:37.328Z,12.09
2023-04-29T00:38:06.985Z,12.10
2023-04-29T00:40:36.725Z,12.10
2023-04-29T00:43:04.681Z,12.12
2023-04-29T00:45:32.486Z,12.14
2023-04-29T00:48:00.285Z,12.12
2023-04-29T00:50:28.462Z,12.11
2023-04-29T00:52:56.652Z,12.10
2023-04-29T00:55:27.444Z,12.10
2023-04-29T00:57:55.351Z,12.14
2023-04-29T01:00:26.251Z,12.12
2023-04-29T01:02:57.340Z,12.11
2023-04-29T01:05:25.446Z,12.13
2023-04-29T01:08:00.765Z,12.15
2023-04-29T01:10:31.522Z,12.14
2023-04-29T01:13:05.660Z,12.14
2023-04-29T01:15:39.150Z,12.13
2023-04-29T01:18:12.119Z,12.13
2023-04-29T01:20:40.195Z,12.13
2023-04-29T01:23:08.129Z,12.13
2023-04-29T01:25:38.301Z,12.13
2023-04-29T01:28:11.742Z,12.14
2023-04-29T01:30:46.006Z,12.14
2023-04-29T01:33:18.747Z,12.15
2023-04-29T01:35:57.723Z,12.12
2023-04-29T01:38:32.186Z,12.13
2023-04-29T01:41:11.779Z,12.17
2023-04-29T01:43:40.263Z,12.15
2023-04-29T01:46:11.179Z,12.15
2023-04-29T01:48:40.909Z,12.14
2023-04-29T01:51:11.831Z,12.10
2023-04-29T01:53:41.612Z,12.08
2023-04-29T01:56:10.878Z,12.08
2023-04-29T01:58:39.062Z,12.07
2023-04-29T02:01:07.531Z,12.06
2023-04-29T02:03:37.258Z,12.06
2023-04-29T02:06:07.323Z,12.06
2023-04-29T02:08:35.227Z,12.06
2023-04-29T02:11:04.987Z,12.06
2023-04-29T02:13:34.672Z,12.07
2023-04-29T02:16:09.393Z,12.06
2023-04-29T02:18:37.509Z,12.01
2023-04-29T02:21:05.808Z,11.96
2023-04-29T02:23:33.857Z,11.92
2023-04-29T02:26:01.937Z,11.91
2023-04-29T02:28:29.622Z,11.86
2023-04-29T02:30:58.779Z,11.88
2023-04-29T02:33:26.565Z,11.87
2023-04-29T02:35:54.267Z,11.85
2023-04-29T02:38:22.174Z,11.84
2023-04-29T02:40:50.447Z,11.82
2023-04-29T02:43:18.120Z,11.83
2023-04-29T02:45:46.526Z,11.80
2023-04-29T02:48:16.074Z,11.79
2023-04-29T02:50:45.618Z,11.80
2023-04-29T02:53:13.767Z,11.80
2023-04-29T02:55:41.768Z,11.79
2023-04-29T02:58:09.939Z,11.75
2023-04-29T03:00:38.045Z,11.75
2023-04-29T03:03:05.930Z,11.73
2023-04-29T03:05:37.388Z,11.72
2023-04-29T03:08:07.711Z,11.72
2023-04-29T03:10:35.704Z,11.70
2023-04-29T03:13:05.641Z,11.70
2023-04-29T03:15:33.599Z,11.71
2023-04-29T03:18:01.989Z,11.70
2023-04-29T03:20:29.867Z,11.69
2023-04-29T03:23:02.775Z,11.70
2023-04-29T03:25:32.460Z,11.70
2023-04-29T03:28:00.590Z,11.75
2023-04-29T03:30:28.526Z,11.76
2023-04-29T03:32:56.315Z,11.76
2023-04-29T03:35:24.028Z,11.77
2023-04-29T03:37:51.765Z,11.79
2023-04-29T03:40:22.807Z,11.79
2023-04-29T03:42:50.770Z,11.78
2023-04-29T03:45:18.792Z,11.78
2023-04-29T03:47:48.531Z,11.77
2023-04-29T03:50:18.432Z,11.74
2023-04-29T03:52:47.895Z,11.74
2023-04-29T03:55:15.869Z,11.70
2023-04-29T03:57:45.050Z,11.70
2023-04-29T04:00:13.999Z,11.67
2023-04-29T04:02:42.317Z,11.70
2023-04-29T04:05:10.933Z,11.69
2023-04-29T04:07:38.715Z,11.66
2023-04-29T04:10:09.656Z,11.64
2023-04-29T04:12:37.427Z,11.59
2023-04-29T04:15:07.520Z,11.62
2023-04-29T04:17:35.586Z,11.63
2023-04-29T04:20:03.680Z,11.63
2023-04-29T04:22:33.198Z,11.66
2023-04-29T04:25:01.276Z,11.66
2023-04-29T04:27:29.201Z,11.67
2023-04-29T04:29:57.139Z,11.67
2023-04-29T04:32:26.863Z,11.65
2023-04-29T04:34:54.944Z,11.64
2023-04-29T04:37:22.721Z,11.63
2023-04-29T04:39:50.507Z,11.63
2023-04-29T04:42:18.412Z,11.62
2023-04-29T04:44:46.446Z,11.60
2023-04-29T04:47:14.169Z,11.61
2023-04-29T04:49:44.172Z,11.62
2023-04-29T04:52:14.017Z,11.59
2023-04-29T04:54:41.952Z,11.58
2023-04-29T04:57:11.752Z,11.56
2023-04-29T04:59:39.592Z,11.52
2023-04-29T05:02:08.845Z,11.53
2023-04-29T05:04:36.723Z,11.53
2023-04-29T05:07:05.930Z,11.53
2023-04-29T05:09:33.994Z,11.50
2023-04-29T05:12:02.016Z,11.47
2023-04-29T05:14:29.751Z,11.47
2023-04-29T05:17:00.113Z,11.45
2023-04-29T05:19:27.883Z,11.47
2023-04-29T05:21:55.917Z,11.47
2023-04-29T05:24:27.009Z,11.48
2023-04-29T05:26:57.522Z,11.47
2023-04-29T05:29:27.158Z,11.45
2023-04-29T05:31:54.924Z,11.45
2023-04-29T05:34:22.833Z,11.44
2023-04-29T05:36:50.664Z,11.44
2023-04-29T05:39:18.946Z,11.45
2023-04-29T05:41:48.113Z,11.44
2023-04-29T05:44:15.942Z,11.42
2023-04-29T05:46:43.918Z,11.47
2023-04-29T05:49:11.607Z,11.49
2023-04-29T05:51:41.299Z,11.52
2023-04-29T05:54:09.205Z,11.52
2023-04-29T05:56:37.176Z,11.53
2023-04-29T05:59:06.297Z,11.56
2023-04-29T06:01:34.113Z,11.52
2023-04-29T06:04:02.094Z,11.54
2023-04-29T06:06:30.240Z,11.52
2023-04-29T06:08:57.985Z,11.52
2023-04-29T06:11:26.023Z,11.52
2023-04-29T06:13:53.739Z,11.55
2023-04-29T06:16:23.085Z,11.54
2023-04-29T06:18:51.005Z,11.54
2023-04-29T06:21:18.756Z,11.54
2023-04-29T06:23:46.467Z,11.52
2023-04-29T06:26:14.547Z,11.54
2023-04-29T06:28:42.239Z,11.55
2023-04-29T06:31:10.002Z,11.53
2023-04-29T06:33:39.295Z,11.53
2023-04-29T06:36:07.449Z,11.56
2023-04-29T06:38:35.562Z,11.55
2023-04-29T06:41:04.351Z,11.54
2023-04-29T06:43:32.390Z,11.54
2023-04-29T06:46:00.364Z,11.55
2023-04-29T06:48:30.358Z,11.59
2023-04-29T06:51:00.017Z,11.56
2023-04-29T06:53:28.262Z,11.57
2023-04-29T06:55:56.037Z,11.57
2023-04-29T06:58:23.986Z,11.58
2023-04-29T07:00:52.534Z,11.62
2023-04-29T07:03:20.470Z,11.61
2023-04-29T07:05:48.479Z,11.64
2023-04-29T07:08:17.588Z,11.67
2023-04-29T07:10:45.279Z,11.74
2023-04-29T07:13:12.971Z,11.74
2023-04-29T07:15:40.734Z,11.78
2023-04-29T07:18:08.516Z,11.82
2023-04-29T07:20:37.859Z,11.83
2023-04-29T07:23:05.539Z,11.86
2023-04-29T07:25:34.534Z,11.86
2023-04-29T07:28:02.256Z,11.84
2023-04-29T07:30:30.019Z,11.89
2023-04-29T07:32:57.956Z,11.90
2023-04-29T07:35:25.617Z,11.91
2023-04-29T07:37:53.343Z,11.93
2023-04-29T07:40:21.209Z,11.95
2023-04-29T07:42:50.302Z,11.96
2023-04-29T07:45:17.943Z,12.00
2023-04-29T07:47:45.791Z,11.98
2023-04-29T07:50:13.865Z,11.97
2023-04-29T07:52:41.583Z,11.96
2023-04-29T07:55:10.103Z,11.98
2023-04-29T07:57:38.272Z,12.00
2023-04-29T08:00:08.886Z,11.99
2023-04-29T08:02:36.756Z,12.05
2023-04-29T08:05:05.587Z,12.06
2023-04-29T08:07:33.576Z,12.07
2023-04-29T08:10:01.405Z,12.06
2023-04-29T08:12:29.065Z,12.08
2023-04-29T08:14:56.829Z,12.14
2023-04-29T08:17:25.918Z,12.21
2023-04-29T08:19:53.682Z,12.27
2023-04-29T08:22:21.368Z,12.30
2023-04-29T08:24:49.504Z,12.34
2023-04-29T08:27:17.161Z,12.38
2023-04-29T08:29:44.851Z,12.42
2023-04-29T08:32:12.869Z,12.42
2023-04-29T08:34:42.017Z,12.44
2023-04-29T08:37:09.767Z,12.50
2023-04-29T08:39:37.556Z,12.51
2023-04-29T08:42:09.655Z,12.54
2023-04-29T08:44:37.809Z,12.58
2023-04-29T08:47:06.249Z,12.61
2023-04-29T08:49:34.330Z,12.65
2023-04-29T08:52:03.582Z,12.70
2023-04-29T08:54:32.882Z,12.72
2023-04-29T08:57:02.715Z,12.73
2023-04-29T08:59:30.636Z,12.78
2023-04-29T09:01:58.739Z,12.84
2023-04-29T09:04:32.659Z,12.76
2023-04-29T09:07:00.567Z,12.90
2023-04-29T09:09:30.266Z,12.91
2023-04-29T09:11:57.953Z,12.95
2023-04-29T09:14:26.378Z,13.01
2023-04-29T09:16:54.254Z,13.02
2023-04-29T09:19:32.892Z,13.07
2023-04-29T09:22:00.916Z,13.10
2023-04-29T09:24:33.398Z,13.14
2023-04-29T09:27:03.520Z,13.22
2023-04-29T09:29:32.981Z,13.25
2023-04-29T09:32:01.162Z,13.27
2023-04-29T09:34:33.711Z,13.27
2023-04-29T09:37:03.559Z,13.33
2023-04-29T09:39:40.171Z,13.37
2023-04-29T09:42:09.716Z,13.40
2023-04-29T09:44:39.480Z,13.41
2023-04-29T09:47:10.775Z,13.45
2023-04-29T09:49:41.959Z,13.51
2023-04-29T09:52:11.972Z,13.51
2023-04-29T09:54:44.896Z,13.49
2023-04-29T09:57:15.971Z,13.52
2023-04-29T09:59:45.935Z,13.60
2023-04-29T10:02:16.381Z,13.68
2023-04-29T10:04:48.916Z,13.75
2023-04-29T10:07:19.159Z,13.80
2023-04-29T10:09:52.291Z,13.84
2023-04-29T10:12:21.796Z,13.85
2023-04-29T10:14:56.625Z,13.86
2023-04-29T10:17:28.204Z,13.91
2023-04-29T10:20:03.845Z,13.98
2023-04-29T10:22:38.242Z,13.99
2023-04-29T10:25:09.292Z,13.94
2023-04-29T10:27:40.060Z,13.86
2023-04-29T10:30:11.320Z,13.86
2023-04-29T10:32:50.486Z,13.88
2023-04-29T10:35:20.440Z,13.91
2023-04-29T10:37:49.169Z,13.93
2023-04-29T10:40:21.287Z,13.99
2023-04-29T10:42:50.374Z,14.08
2023-04-29T10:46:26.808Z,14.21
2023-04-29T10:48:59.590Z,14.26
2023-04-29T10:51:32.736Z,14.36
2023-04-29T10:54:04.913Z,14.38
2023-04-29T10:56:40.322Z,14.37
2023-04-29T10:59:12.069Z,14.32
2023-04-29T11:01:46.364Z,14.28
2023-04-29T11:04:14.665Z,14.28
2023-04-29T11:06:47.448Z,14.25
2023-04-29T11:09:18.108Z,14.24
2023-04-29T11:11:48.902Z,14.23
2023-04-29T11:14:17.553Z,14.22
2023-04-29T11:16:50.505Z,14.25
2023-04-29T11:19:18.546Z,14.28
2023-04-29T11:21:47.996Z,14.34
2023-04-29T11:24:17.487Z,14.35
2023-04-29T11:26:46.462Z,14.42
2023-04-29T11:29:14.312Z,14.51
2023-04-29T11:31:42.057Z,14.54
2023-04-29T11:34:11.686Z,14.56
2023-04-29T11:36:39.462Z,14.56
2023-04-29T11:39:08.986Z,14.58
2023-04-29T11:41:37.697Z,14.58
2023-04-29T11:44:07.537Z,14.61
2023-04-29T11:46:35.427Z,14.62
2023-04-29T11:49:03.206Z,14.66
2023-04-29T11:51:32.694Z,14.67
2023-04-29T11:54:00.446Z,14.74
2023-04-29T11:56:28.160Z,14.80
2023-04-29T11:58:56.996Z,14.87
2023-04-29T12:01:24.868Z,14.94
2023-04-29T12:03:53.016Z,14.98
2023-04-29T12:06:20.831Z,15.01
2023-04-29T12:08:50.019Z,15.08
2023-04-29T12:11:20.125Z,15.13
2023-04-29T12:13:47.831Z,15.11
2023-04-29T12:16:15.705Z,15.07
2023-04-29T12:18:43.427Z,15.02
2023-04-29T12:21:11.209Z,15.01
2023-04-29T12:23:39.253Z,15.00
2023-04-29T12:26:09.189Z,15.03
2023-04-29T12:28:37.212Z,15.09
2023-04-29T12:31:07.446Z,15.21
2023-04-29T12:33:35.833Z,15.34
2023-04-29T12:36:05.446Z,15.45
2023-04-29T12:38:33.566Z,15.56
2023-04-29T12:41:01.985Z,15.69
2023-04-29T12:43:32.316Z,15.70
2023-04-29T12:46:02.620Z,15.70
2023-04-29T12:48:33.189Z,15.65
2023-04-29T12:51:02.207Z,15.68
2023-04-29T12:53:30.901Z,15.72
2023-04-29T12:55:59.036Z,15.75
2023-04-29T12:58:31.216Z,15.81
2023-04-29T13:00:59.295Z,15.80
2023-04-29T13:03:27.327Z,15.75
2023-04-29T13:05:55.390Z,15.68
2023-04-29T13:08:23.252Z,15.62
2023-04-29T13:13:25.208Z,15.64
2023-04-29T13:15:53.047Z,15.77
2023-04-29T13:18:20.824Z,15.80
2023-04-29T13:20:48.520Z,15.84
2023-04-29T13:23:16.509Z,15.87
2023-04-29T13:25:44.211Z,15.96
2023-04-29T13:28:12.654Z,16.04
2023-04-29T13:30:41.837Z,16.17
2023-04-29T13:33:12.401Z,16.28
2023-04-29T13:35:41.792Z,16.21
2023-04-29T13:38:10.124Z,16.22
2023-04-29T13:40:45.341Z,16.28
2023-04-29T13:43:21.024Z,16.37
2023-04-29T13:46:00.575Z,16.48
2023-04-29T13:49:02.872Z,16.56
2023-04-29T13:51:56.245Z,16.50
2023-04-29T14:02:21.424Z,16.45
2023-04-29T14:04:26.019Z,16.58
2023-04-29T14:06:54.474Z,16.70
2023-04-29T14:09:23.977Z,16.82
2023-04-29T14:11:54.064Z,16.82
2023-04-29T14:14:21.781Z,16.73
2023-04-29T14:16:50.816Z,16.62
2023-04-29T14:19:18.810Z,16.55
2023-04-29T14:21:48.682Z,16.45
2023-04-29T14:24:16.682Z,16.43
2023-04-29T14:26:44.726Z,16.56
2023-04-29T14:29:13.066Z,16.69
2023-04-29T14:31:41.732Z,16.84
2023-04-29T14:34:10.812Z,16.99
2023-04-29T14:36:38.785Z,17.09
2023-04-29T14:39:06.473Z,17.16
2023-04-29T14:41:34.116Z,17.21
2023-04-29T14:44:01.849Z,17.17
2023-04-29T14:46:30.199Z,17.11
2023-04-29T14:48:58.000Z,17.07
2023-04-29T14:51:29.613Z,16.99
2023-04-29T14:53:57.470Z,16.93
2023-04-29T14:56:25.186Z,16.87
2023-04-29T14:58:54.980Z,16.80
2023-04-29T15:01:22.792Z,16.73
2023-04-29T15:03:52.452Z,16.67
2023-04-29T15:06:20.716Z,16.62
2023-04-29T15:08:49.805Z,16.65
2023-04-29T15:11:17.518Z,16.74
2023-04-29T15:13:45.391Z,16.92
2023-04-29T15:16:13.800Z,17.05
2023-04-29T15:18:45.753Z,17.15
2023-04-29T15:21:13.692Z,17.10
2023-04-29T15:23:41.407Z,17.02
2023-04-29T15:26:10.527Z,17.07
2023-04-29T15:28:38.265Z,17.16
2023-04-29T15:31:06.371Z,17.26
2023-04-29T15:33:34.401Z,17.35
2023-04-29T15:36:02.901Z,17.43
2023-04-29T15:38:30.773Z,17.48
2023-04-29T15:41:00.943Z,17.52
2023-04-29T15:43:30.188Z,17.57
2023-04-29T15:45:58.039Z,17.59
2023-04-29T15:48:26.096Z,17.57
2023-04-29T15:50:54.679Z,17.54
2023-04-29T15:53:23.181Z,17.57
2023-04-29T15:55:51.184Z,17.57
2023-04-29T15:58:18.972Z,17.53
2023-04-29T16:00:48.160Z,17.49
2023-04-29T16:03:15.984Z,17.47
2023-04-29T16:05:44.078Z,17.49
2023-04-29T16:08:11.845Z,17.51
2023-04-29T16:10:39.495Z,17.52
2023-04-29T16:13:07.316Z,17.56
2023-04-29T16:15:35.481Z,17.57
2023-04-29T16:18:04.742Z,17.56
2023-04-29T16:20:33.431Z,17.53
2023-04-29T16:23:01.140Z,17.53
2023-04-29T16:25:28.833Z,17.52
2023-04-29T16:27:56.529Z,17.50
2023-04-29T16:30:24.331Z,17.44
2023-04-29T16:32:52.163Z,17.47
2023-04-29T16:35:25.183Z,17.46
2023-04-29T16:37:53.782Z,17.42
2023-04-29T16:40:21.411Z,17.38
2023-04-29T16:42:49.140Z,17.37
2023-04-29T16:45:17.084Z,17.37
2023-04-29T16:47:45.285Z,17.32
2023-04-29T16:50:13.222Z,17.33
2023-04-29T16:52:42.603Z,17.33
2023-04-29T16:55:12.005Z,17.30
2023-04-29T16:57:39.692Z,17.29
2023-04-29T17:00:11.763Z,17.30
2023-04-29T17:02:42.859Z,17.27
2023-04-29T17:05:11.129Z,17.27
2023-04-29T17:07:39.216Z,17.26
2023-04-29T17:10:09.657Z,17.18
2023-04-29T17:12:38.491Z,17.14
2023-04-29T17:15:07.108Z,17.05
2023-04-29T17:17:35.041Z,16.96
2023-04-29T17:20:03.766Z,16.92
2023-04-29T17:22:32.743Z,16.88
2023-04-29T17:25:00.617Z,16.85
2023-04-29T17:27:29.661Z,16.81
2023-04-29T17:29:57.583Z,16.81
2023-04-29T17:32:28.741Z,16.75
2023-04-29T17:34:56.990Z,16.74
2023-04-29T17:37:25.924Z,16.68
2023-04-29T17:39:53.951Z,16.64
2023-04-29T17:42:22.050Z,16.60
2023-04-29T17:44:51.377Z,16.55
2023-04-29T17:47:19.259Z,16.57
2023-04-29T17:49:47.088Z,16.56
2023-04-29T17:52:15.817Z,16.54
2023-04-29T17:54:43.611Z,16.51
2023-04-29T17:57:11.234Z,16.47
2023-04-29T17:59:38.920Z,16.47
2023-04-29T18:02:08.180Z,16.39
2023-04-29T18:04:37.312Z,16.38
2023-04-29T18:07:05.226Z,16.40
2023-04-29T18:09:32.981Z,16.37
2023-04-29T18:12:02.341Z,16.39
2023-04-29T18:14:31.031Z,16.36
2023-04-29T18:16:59.381Z,16.32
2023-04-29T18:19:28.665Z,16.25
2023-04-29T18:21:58.364Z,16.23
2023-04-29T18:24:26.626Z,16.18
2023-04-29T18:26:54.295Z,16.16
2023-04-29T18:29:21.923Z,16.12
2023-04-29T18:31:49.656Z,16.05
2023-04-29T18:34:17.485Z,15.95
2023-04-29T18:36:46.530Z,15.91
2023-04-29T18:39:14.186Z,15.83
2023-04-29T18:41:41.841Z,15.76
2023-04-29T18:44:09.563Z,15.72
2023-04-29T18:46:37.225Z,15.67
2023-04-29T18:49:04.908Z,15.58
2023-04-29T18:51:32.685Z,15.49
2023-04-29T18:54:01.691Z,15.42
2023-04-29T18:56:29.301Z,15.33
2023-04-29T18:58:56.943Z,15.27
2023-04-29T19:01:24.677Z,15.26
2023-04-29T19:03:52.615Z,15.25
2023-04-29T19:06:20.338Z,15.22
2023-04-29T19:08:48.033Z,15.19
2023-04-29T19:11:17.064Z,15.13
2023-04-29T19:13:44.747Z,15.12
2023-04-29T19:16:12.511Z,15.09
2023-04-29T19:18:40.320Z,15.05
2023-04-29T19:21:08.172Z,15.02
2023-04-29T19:23:36.156Z,15.00
2023-04-29T19:26:03.841Z,14.97
2023-04-29T19:28:32.879Z,14.94
2023-04-29T19:31:00.552Z,14.88
2023-04-29T19:33:28.339Z,14.85
2023-04-29T19:35:56.103Z,14.81
2023-04-29T19:38:24.327Z,14.74
2023-04-29T19:40:52.054Z,14.67
2023-04-29T19:43:19.748Z,14.63
2023-04-29T19:45:48.847Z,14.59
2023-04-29T19:48:16.583Z,14.55
2023-04-29T19:50:44.284Z,14.51
2023-04-29T19:53:12.449Z,14.45
2023-04-29T19:55:40.530Z,14.40
2023-04-29T19:58:08.492Z,14.37
2023-04-29T20:00:36.461Z,14.36
2023-04-29T20:03:05.900Z,14.35
2023-04-29T20:05:34.022Z,14.37
2023-04-29T20:08:01.808Z,14.34
2023-04-29T20:10:30.193Z,14.32
2023-04-29T20:13:00.422Z,14.31
2023-04-29T20:15:28.474Z,14.24
2023-04-29T20:17:56.228Z,14.23
2023-04-29T20:20:26.064Z,14.19
2023-04-29T20:22:57.991Z,14.17
2023-04-29T20:25:25.726Z,14.16
2023-04-29T20:27:54.262Z,14.11
2023-04-29T20:30:22.225Z,14.06
2023-04-29T20:32:50.602Z,14.03
2023-04-29T20:35:18.594Z,13.99
2023-04-29T20:37:47.715Z,13.98
2023-04-29T20:40:15.502Z,13.96
2023-04-29T20:42:43.154Z,13.96
2023-04-29T20:45:12.020Z,13.94
2023-04-29T20:47:39.811Z,13.91
2023-04-29T20:50:08.428Z,13.88
2023-04-29T20:52:36.631Z,13.84
2023-04-29T20:55:06.141Z,13.82
2023-04-29T20:57:33.864Z,13.79
2023-04-29T21:00:01.647Z,13.74
2023-04-29T21:02:29.432Z,13.72
2023-04-29T21:04:57.160Z,13.68
2023-04-29T21:07:24.889Z,13.66
2023-04-29T21:09:52.765Z,13.64
2023-04-29T21:12:22.391Z,13.63
2023-04-29T21:14:50.040Z,13.60
2023-04-29T21:17:17.768Z,13.57
2023-04-29T21:19:45.434Z,13.55
2023-04-29T21:22:13.126Z,13.53
2023-04-29T21:24:40.869Z,13.51
2023-04-29T21:27:08.576Z,13.48
2023-04-29T21:29:40.762Z,13.45
2023-04-29T21:32:08.712Z,13.44
2023-04-29T21:34:36.790Z,13.43
2023-04-29T21:37:04.822Z,13.39
2023-04-29T21:39:32.881Z,13.37
2023-04-29T21:42:03.013Z,13.35
2023-04-29T21:44:30.711Z,13.34
2023-04-29T21:47:00.879Z,13.31
2023-04-29T21:49:28.997Z,13.28
2023-04-29T21:51:56.920Z,13.25
2023-04-29T21:54:24.542Z,13.25
2023-04-29T21:56:52.173Z,13.23
2023-04-29T21:59:19.929Z,13.20
2023-04-29T22:01:59.698Z,13.14
2023-04-29T22:04:29.156Z,13.07
2023-04-29T22:06:57.160Z,13.00
2023-04-29T22:09:24.926Z,12.97
2023-04-29T22:11:52.695Z,12.99
2023-04-29T22:14:20.389Z,12.97
2023-04-29T22:16:48.181Z,12.91
2023-04-29T22:19:16.008Z,12.91
2023-04-29T22:21:45.065Z,12.88
2023-04-29T22:24:12.776Z,12.85
2023-04-29T22:26:40.545Z,12.84
2023-04-29T22:29:08.202Z,12.82
2023-04-29T22:31:35.991Z,12.77
2023-04-29T22:34:03.735Z,12.75
2023-04-29T22:36:32.066Z,12.70
2023-04-29T22:39:01.235Z,12.64
2023-04-29T22:41:29.393Z,12.62
2023-04-29T22:43:57.800Z,12.58
2023-04-29T22:46:25.741Z,12.56
2023-04-29T22:48:53.541Z,12.52
2023-04-29T22:51:21.333Z,12.48
2023-04-29T22:53:48.971Z,12.43
2023-04-29T22:56:18.169Z,12.43
2023-04-29T22:58:45.868Z,12.42
2023-04-29T23:01:13.634Z,12.40
2023-04-29T23:03:41.377Z,12.38
2023-04-29T23:06:09.141Z,12.33
2023-04-29T23:08:36.889Z,12.32
2023-04-29T23:11:04.832Z,12.30
2023-04-29T23:13:34.018Z,12.28
2023-04-29T23:16:02.004Z,12.25
2023-04-29T23:18:29.843Z,12.22
2023-04-29T23:20:57.801Z,12.22
2023-04-29T23:23:25.563Z,12.20
2023-04-29T23:25:53.267Z,12.20
2023-04-29T23:28:21.009Z,12.18
2023-04-29T23:30:49.971Z,12.15
2023-04-29T23:33:17.632Z,12.16
2023-04-29T23:35:50.424Z,12.14
2023-04-29T23:38:18.356Z,12.12
2023-04-29T23:40:46.317Z,12.10
2023-04-29T23:43:14.880Z,12.10
2023-04-29T23:45:45.038Z,12.07
2023-04-29T23:48:15.616Z,12.06
2023-04-29T23:50:43.372Z,12.02
2023-04-29T23:53:11.107Z,12.00
2023-04-29T23:55:38.801Z,11.95
2023-04-29T23:58:06.456Z,11.91
